sensor_id;sensor_type;location;lat;lon;timestamp;pressure;altitude;pressure_sealevel;temperature;humidity
7075;BME280;3578;51.568;6.932;2023-03-23T00:00:14;50421.47;;;-144.14;100.00
7075;BME280;3578;51.568;6.932;2023-03-23T00:02:41;50513.59;;;-144.14;100.00
7075;BME280;3578;51.568;6.932;2023-03-23T00:05:10;50541.63;;;-144.14;100.00
7075;BME280;3578;51.568;6.932;2023-03-23T00:07:37;50567.66;;;-144.14;100.00
7075;BME280;3578;51.568;6.932;2023-03-23T00:10:11;50563.66;;;-144.14;100.00
7075;BME280;3578;51.568;6.932;2023-03-23T00:12:38;50669.78;;;-144.14;100.00
7075;BME280;3578;51.568;6.932;2023-03-23T00:15:09;50673.78;;;-144.14;100.00
7075;BME280;3578;51.568;6.932;2023-03-23T00:17:39;50739.88;;;-144.14;100.00
7075;BME280;3578;51.568;6.932;2023-03-23T00:20:07;50767.91;;;-144.14;100.00
7075;BME280;3578;51.568;6.932;2023-03-23T00:22:38;50910.09;;;-144.14;100.00
7075;BME280;3578;51.568;6.932;2023-03-23T00:25:07;50916.09;;;-144.14;100.00
7075;BME280;3578;51.568;6.932;2023-03-23T00:27:35;50918.09;;;-144.14;100.00
7075;BME280;3578;51.568;6.932;2023-03-23T00:30:03;50910.09;;;-144.14;100.00
7075;BME280;3578;51.568;6.932;2023-03-23T00:32:31;50974.19;;;-144.14;100.00
7075;BME280;3578;51.568;6.932;2023-03-23T00:34:58;50978.19;;;-144.14;100.00
7075;BME280;3578;51.568;6.932;2023-03-23T00:37:26;51030.25;;;-144.14;100.00
7075;BME280;3578;51.568;6.932;2023-03-23T00:39:55;51078.34;;;-144.14;100.00
7075;BME280;3578;51.568;6.932;2023-03-23T00:42:23;51148.44;;;-144.14;100.00
7075;BME280;3578;51.568;6.932;2023-03-23T00:44:52;51196.50;;;-144.14;100.00
7075;BME280;3578;51.568;6.932;2023-03-23T00:47:25;51228.53;;;-144.14;100.00
7075;BME280;3578;51.568;6.932;2023-03-23T00:49:52;51266.59;;;-144.14;100.00
7075;BME280;3578;51.568;6.932;2023-03-23T00:52:22;51260.59;;;-144.14;100.00
7075;BME280;3578;51.568;6.932;2023-03-23T00:54:49;51336.69;;;-144.14;100.00
7075;BME280;3578;51.568;6.932;2023-03-23T00:57:18;51348.72;;;-144.14;100.00
7075;BME280;3578;51.568;6.932;2023-03-23T00:59:45;51388.78;;;-144.14;100.00
7075;BME280;3578;51.568;6.932;2023-03-23T01:02:12;51352.72;;;-144.14;100.00
7075;BME280;3578;51.568;6.932;2023-03-23T01:04:39;51372.75;;;-144.14;100.00
7075;BME280;3578;51.568;6.932;2023-03-23T01:07:10;51386.78;;;-144.14;100.00
7075;BME280;3578;51.568;6.932;2023-03-23T01:09:38;51426.84;;;-144.14;100.00
7075;BME280;3578;51.568;6.932;2023-03-23T01:12:10;51412.81;;;-144.14;100.00
7075;BME280;3578;51.568;6.932;2023-03-23T01:14:39;51454.88;;;-144.14;100.00
7075;BME280;3578;51.568;6.932;2023-03-23T01:17:06;51446.88;;;-144.14;100.00
7075;BME280;3578;51.568;6.932;2023-03-23T01:19:33;51470.91;;;-144.14;100.00
7075;BME280;3578;51.568;6.932;2023-03-23T01:22:00;51440.84;;;-144.14;100.00
7075;BME280;3578;51.568;6.932;2023-03-23T01:24:27;51446.88;;;-144.14;100.00
7075;BME280;3578;51.568;6.932;2023-03-23T01:26:54;51510.97;;;-144.14;100.00
7075;BME280;3578;51.568;6.932;2023-03-23T01:29:22;51531.00;;;-144.14;100.00
7075;BME280;3578;51.568;6.932;2023-03-23T01:31:50;51555.03;;;-144.14;100.00
7075;BME280;3578;51.568;6.932;2023-03-23T01:34:17;51561.03;;;-144.14;100.00
7075;BME280;3578;51.568;6.932;2023-03-23T01:36:44;51559.03;;;-144.14;100.00
7075;BME280;3578;51.568;6.932;2023-03-23T01:39:11;51551.03;;;-144.14;100.00
7075;BME280;3578;51.568;6.932;2023-03-23T01:41:38;51585.09;;;-144.14;99.76
7075;BME280;3578;51.568;6.932;2023-03-23T01:45:09;51609.13;;;-144.14;99.24
7075;BME280;3578;51.568;6.932;2023-03-23T01:46:57;51639.16;;;-144.14;99.10
7075;BME280;3578;51.568;6.932;2023-03-23T01:49:28;51647.19;;;-144.14;98.71
7075;BME280;3578;51.568;6.932;2023-03-23T01:51:59;51669.22;;;-144.14;98.71
7075;BME280;3578;51.568;6.932;2023-03-23T01:54:28;51677.22;;;-144.14;98.76
7075;BME280;3578;51.568;6.932;2023-03-23T01:56:59;51719.28;;;-144.14;98.47
7075;BME280;3578;51.568;6.932;2023-03-23T01:59:28;51693.25;;;-144.14;98.67
7075;BME280;3578;51.568;6.932;2023-03-23T02:01:57;51681.22;;;-144.14;98.56
7075;BME280;3578;51.568;6.932;2023-03-23T02:04:26;51715.28;;;-144.14;98.00
7075;BME280;3578;51.568;6.932;2023-03-23T02:06:54;51713.28;;;-144.14;97.85
7075;BME280;3578;51.568;6.932;2023-03-23T02:09:23;51719.28;;;-144.14;97.88
7075;BME280;3578;51.568;6.932;2023-03-23T02:11:52;51755.34;;;-144.14;98.25
7075;BME280;3578;51.568;6.932;2023-03-23T02:14:20;51721.28;;;-144.14;98.63
7075;BME280;3578;51.568;6.932;2023-03-23T02:16:55;51679.22;;;-144.14;99.25
7075;BME280;3578;51.568;6.932;2023-03-23T02:19:51;51659.19;;;-144.14;99.46
7075;BME280;3578;51.568;6.932;2023-03-23T02:22:54;51647.19;;;-144.14;99.28
7075;BME280;3578;51.568;6.932;2023-03-23T02:25:42;51611.13;;;-144.14;99.72
7075;BME280;3578;51.568;6.932;2023-03-23T02:31:37;51643.16;;;-144.14;99.53
7075;BME280;3578;51.568;6.932;2023-03-23T02:34:16;51639.16;;;-144.14;98.67
7075;BME280;3578;51.568;6.932;2023-03-23T02:36:48;51719.28;;;-144.14;98.64
7075;BME280;3578;51.568;6.932;2023-03-23T02:39:21;51683.22;;;-144.14;98.75
7075;BME280;3578;51.568;6.932;2023-03-23T02:41:52;51783.41;;;-144.14;97.55
7075;BME280;3578;51.568;6.932;2023-03-23T02:44:22;51809.44;;;-144.14;96.93
7075;BME280;3578;51.568;6.932;2023-03-23T02:46:52;51833.47;;;-144.14;96.76
7075;BME280;3578;51.568;6.932;2023-03-23T02:49:23;51875.53;;;-144.14;96.45
7075;BME280;3578;51.568;6.932;2023-03-23T02:51:52;51863.53;;;-144.14;96.55
7075;BME280;3578;51.568;6.932;2023-03-23T02:54:21;51851.50;;;-144.14;96.89
7075;BME280;3578;51.568;6.932;2023-03-23T02:56:52;51825.47;;;-144.14;97.16
7075;BME280;3578;51.568;6.932;2023-03-23T02:59:20;51823.47;;;-144.14;97.29
7075;BME280;3578;51.568;6.932;2023-03-23T03:02:07;51763.34;;;-144.14;97.88
7075;BME280;3578;51.568;6.932;2023-03-23T03:04:39;51799.41;;;-144.14;97.76
7075;BME280;3578;51.568;6.932;2023-03-23T03:07:27;51825.47;;;-144.14;97.42
7075;BME280;3578;51.568;6.932;2023-03-23T03:10:01;51809.44;;;-144.14;97.59
7075;BME280;3578;51.568;6.932;2023-03-23T03:12:37;51795.41;;;-144.14;97.84
7075;BME280;3578;51.568;6.932;2023-03-23T03:15:13;51815.44;;;-144.14;97.95
7075;BME280;3578;51.568;6.932;2023-03-23T03:17:52;51799.41;;;-144.14;97.77
7075;BME280;3578;51.568;6.932;2023-03-23T03:20:23;51805.44;;;-144.14;97.65
7075;BME280;3578;51.568;6.932;2023-03-23T03:22:53;51799.41;;;-144.14;97.78
7075;BME280;3578;51.568;6.932;2023-03-23T03:25:20;51751.34;;;-144.14;97.50
7075;BME280;3578;51.568;6.932;2023-03-23T03:27:49;51791.41;;;-144.14;97.35
7075;BME280;3578;51.568;6.932;2023-03-23T03:30:22;51859.50;;;-144.14;96.79
7075;BME280;3578;51.568;6.932;2023-03-23T03:32:52;51851.50;;;-144.14;96.51
7075;BME280;3578;51.568;6.932;2023-03-23T03:35:23;51939.66;;;-144.14;96.36
7075;BME280;3578;51.568;6.932;2023-03-23T03:37:51;51935.63;;;-144.14;95.77
7075;BME280;3578;51.568;6.932;2023-03-23T03:40:21;51923.63;;;-144.14;95.55
7075;BME280;3578;51.568;6.932;2023-03-23T03:42:48;51917.63;;;-144.14;95.45
7075;BME280;3578;51.568;6.932;2023-03-23T03:45:18;51925.63;;;-144.14;95.69
7075;BME280;3578;51.568;6.932;2023-03-23T03:47:45;51911.59;;;-144.14;95.68
7075;BME280;3578;51.568;6.932;2023-03-23T03:50:13;51939.66;;;-144.14;95.48
7075;BME280;3578;51.568;6.932;2023-03-23T03:52:41;51905.59;;;-144.14;95.49
7075;BME280;3578;51.568;6.932;2023-03-23T03:55:10;51939.66;;;-144.14;95.72
7075;BME280;3578;51.568;6.932;2023-03-23T03:57:37;51923.63;;;-144.14;96.28
7075;BME280;3578;51.568;6.932;2023-03-23T04:00:07;51907.59;;;-144.14;95.82
7075;BME280;3578;51.568;6.932;2023-03-23T04:02:41;51949.66;;;-144.14;95.47
7075;BME280;3578;51.568;6.932;2023-03-23T04:05:08;51951.66;;;-144.14;95.12
7075;BME280;3578;51.568;6.932;2023-03-23T04:07:37;51947.66;;;-144.14;94.73
7075;BME280;3578;51.568;6.932;2023-03-23T04:10:08;51987.72;;;-144.14;94.28
7075;BME280;3578;51.568;6.932;2023-03-23T04:12:36;52017.78;;;-144.14;93.84
7075;BME280;3578;51.568;6.932;2023-03-23T04:15:05;52013.78;;;-144.14;93.61
7075;BME280;3578;51.568;6.932;2023-03-23T04:17:33;52063.84;;;-144.14;93.76
7075;BME280;3578;51.568;6.932;2023-03-23T04:20:01;52081.88;;;-144.14;93.45
7075;BME280;3578;51.568;6.932;2023-03-23T04:22:32;52039.81;;;-144.14;93.18
7075;BME280;3578;51.568;6.932;2023-03-23T04:25:01;52095.91;;;-144.14;93.63
7075;BME280;3578;51.568;6.932;2023-03-23T04:27:33;52033.81;;;-144.14;93.65
7075;BME280;3578;51.568;6.932;2023-03-23T04:30:00;52079.88;;;-144.14;93.47
7075;BME280;3578;51.568;6.932;2023-03-23T04:32:28;52027.78;;;-144.14;94.16
7075;BME280;3578;51.568;6.932;2023-03-23T04:34:56;52027.78;;;-144.14;94.43
7075;BME280;3578;51.568;6.932;2023-03-23T04:37:25;52009.75;;;-144.14;94.40
7075;BME280;3578;51.568;6.932;2023-03-23T04:39:55;52047.84;;;-144.14;94.46
7075;BME280;3578;51.568;6.932;2023-03-23T04:42:28;51955.69;;;-144.14;94.37
7075;BME280;3578;51.568;6.932;2023-03-23T04:44:59;52049.84;;;-144.14;93.58
7075;BME280;3578;51.568;6.932;2023-03-23T04:47:31;52095.91;;;-144.14;93.07
7075;BME280;3578;51.568;6.932;2023-03-23T04:49:58;52099.91;;;-144.14;92.77
7075;BME280;3578;51.568;6.932;2023-03-23T04:52:27;52121.94;;;-144.14;92.80
7075;BME280;3578;51.568;6.932;2023-03-23T04:54:55;52115.94;;;-144.14;92.43
7075;BME280;3578;51.568;6.932;2023-03-23T04:57:22;52079.88;;;-144.14;93.20
7075;BME280;3578;51.568;6.932;2023-03-23T04:59:51;52101.91;;;-144.14;93.25
7075;BME280;3578;51.568;6.932;2023-03-23T05:02:19;52097.91;;;-144.14;92.78
7075;BME280;3578;51.568;6.932;2023-03-23T05:04:46;52115.94;;;-144.14;92.83
7075;BME280;3578;51.568;6.932;2023-03-23T05:07:14;52137.97;;;-144.14;92.54
7075;BME280;3578;51.568;6.932;2023-03-23T05:09:41;52142.00;;;-144.14;92.06
7075;BME280;3578;51.568;6.932;2023-03-23T05:12:09;52115.94;;;-144.14;91.91
7075;BME280;3578;51.568;6.932;2023-03-23T05:14:42;52123.97;;;-144.14;92.01
7075;BME280;3578;51.568;6.932;2023-03-23T05:17:09;52150.00;;;-144.14;91.70
7075;BME280;3578;51.568;6.932;2023-03-23T05:19:37;52131.97;;;-144.14;92.14
7075;BME280;3578;51.568;6.932;2023-03-23T05:22:06;52129.97;;;-144.14;92.51
7075;BME280;3578;51.568;6.932;2023-03-23T05:24:35;52113.94;;;-144.14;93.07
7075;BME280;3578;51.568;6.932;2023-03-23T05:27:02;52137.97;;;-144.14;92.51
7075;BME280;3578;51.568;6.932;2023-03-23T05:29:29;52097.91;;;-144.14;93.94
7075;BME280;3578;51.568;6.932;2023-03-23T05:31:56;52127.97;;;-144.14;93.31
7075;BME280;3578;51.568;6.932;2023-03-23T05:34:25;52105.94;;;-144.14;92.81
7075;BME280;3578;51.568;6.932;2023-03-23T05:36:55;52156.00;;;-144.14;92.19
7075;BME280;3578;51.568;6.932;2023-03-23T05:39:23;52156.00;;;-144.14;92.08
7075;BME280;3578;51.568;6.932;2023-03-23T05:41:50;52127.97;;;-144.14;92.38
7075;BME280;3578;51.568;6.932;2023-03-23T05:44:18;52156.00;;;-144.14;91.98
7075;BME280;3578;51.568;6.932;2023-03-23T05:46:45;52180.06;;;-144.14;91.60
7075;BME280;3578;51.568;6.932;2023-03-23T05:49:13;52206.09;;;-144.14;90.75
7075;BME280;3578;51.568;6.932;2023-03-23T05:51:41;52220.13;;;-144.14;90.74
7075;BME280;3578;51.568;6.932;2023-03-23T05:54:10;52214.13;;;-144.14;90.80
7075;BME280;3578;51.568;6.932;2023-03-23T05:56:37;52202.09;;;-144.14;91.23
7075;BME280;3578;51.568;6.932;2023-03-23T05:59:04;52262.19;;;-144.14;90.85
7075;BME280;3578;51.568;6.932;2023-03-23T06:01:31;52220.13;;;-144.14;91.18
7075;BME280;3578;51.568;6.932;2023-03-23T06:03:58;52160.03;;;-144.14;92.40
7075;BME280;3578;51.568;6.932;2023-03-23T06:06:26;52129.97;;;-144.14;92.69
7075;BME280;3578;51.568;6.932;2023-03-23T06:08:53;52123.97;;;-144.14;93.08
7075;BME280;3578;51.568;6.932;2023-03-23T06:11:22;52111.94;;;-144.14;93.86
7075;BME280;3578;51.568;6.932;2023-03-23T06:13:50;52125.97;;;-144.14;93.27
7075;BME280;3578;51.568;6.932;2023-03-23T06:16:17;52107.94;;;-144.14;93.53
7075;BME280;3578;51.568;6.932;2023-03-23T06:18:44;52158.00;;;-144.14;92.46
7075;BME280;3578;51.568;6.932;2023-03-23T06:21:12;52152.00;;;-144.14;92.10
7075;BME280;3578;51.568;6.932;2023-03-23T06:23:39;52176.03;;;-144.14;92.08
7075;BME280;3578;51.568;6.932;2023-03-23T06:26:08;52160.03;;;-144.14;92.11
7075;BME280;3578;51.568;6.932;2023-03-23T06:28:38;52172.03;;;-144.14;91.99
7075;BME280;3578;51.568;6.932;2023-03-23T06:31:06;52180.06;;;-144.14;92.01
7075;BME280;3578;51.568;6.932;2023-03-23T06:33:34;52154.00;;;-144.14;91.85
7075;BME280;3578;51.568;6.932;2023-03-23T06:36:03;52200.09;;;-144.14;91.86
7075;BME280;3578;51.568;6.932;2023-03-23T06:38:30;52164.03;;;-144.14;92.00
7075;BME280;3578;51.568;6.932;2023-03-23T06:40:58;52182.06;;;-144.14;91.76
7075;BME280;3578;51.568;6.932;2023-03-23T06:43:25;52230.13;;;-144.14;91.34
7075;BME280;3578;51.568;6.932;2023-03-23T06:45:53;52218.13;;;-144.14;91.31
7075;BME280;3578;51.568;6.932;2023-03-23T06:48:20;52256.19;;;-144.14;90.54
7075;BME280;3578;51.568;6.932;2023-03-23T06:50:47;52212.09;;;-144.14;91.58
7075;BME280;3578;51.568;6.932;2023-03-23T06:53:15;52200.09;;;-144.14;91.27
7075;BME280;3578;51.568;6.932;2023-03-23T06:55:43;52288.25;;;-144.14;90.16
7075;BME280;3578;51.568;6.932;2023-03-23T06:58:11;52312.28;;;-144.14;89.83
7075;BME280;3578;51.568;6.932;2023-03-23T07:00:38;52332.31;;;-144.14;89.48
7075;BME280;3578;51.568;6.932;2023-03-23T07:03:08;52220.13;;;-144.14;89.66
7075;BME280;3578;51.568;6.932;2023-03-23T07:05:35;52284.25;;;-144.14;89.03
7075;BME280;3578;51.568;6.932;2023-03-23T07:08:02;52316.28;;;-144.14;89.11
7075;BME280;3578;51.568;6.932;2023-03-23T07:10:29;52332.31;;;-144.14;88.41
7075;BME280;3578;51.568;6.932;2023-03-23T07:12:57;52324.31;;;-144.14;89.03
7075;BME280;3578;51.568;6.932;2023-03-23T07:15:25;52336.31;;;-144.14;88.48
7075;BME280;3578;51.568;6.932;2023-03-23T07:17:52;52350.34;;;-144.14;88.50
7075;BME280;3578;51.568;6.932;2023-03-23T07:20:22;52358.38;;;-144.14;88.17
7075;BME280;3578;51.568;6.932;2023-03-23T07:22:49;52266.19;;;-144.14;88.67
7075;BME280;3578;51.568;6.932;2023-03-23T07:25:17;52350.34;;;-144.14;88.71
7075;BME280;3578;51.568;6.932;2023-03-23T07:27:45;52356.38;;;-144.14;88.65
7075;BME280;3578;51.568;6.932;2023-03-23T07:30:13;52364.38;;;-144.14;88.47
7075;BME280;3578;51.568;6.932;2023-03-23T07:32:41;52332.31;;;-144.14;88.57
7075;BME280;3578;51.568;6.932;2023-03-23T07:35:10;52336.31;;;-144.14;88.93
7075;BME280;3578;51.568;6.932;2023-03-23T07:37:39;52310.28;;;-144.14;88.58
7075;BME280;3578;51.568;6.932;2023-03-23T07:40:08;52364.38;;;-144.14;87.70
7075;BME280;3578;51.568;6.932;2023-03-23T07:42:36;52390.44;;;-144.14;87.41
7075;BME280;3578;51.568;6.932;2023-03-23T07:45:05;52388.41;;;-144.14;87.36
7075;BME280;3578;51.568;6.932;2023-03-23T07:47:32;52384.41;;;-144.14;87.98
7075;BME280;3578;51.568;6.932;2023-03-23T07:49:59;52368.38;;;-144.14;87.86
7075;BME280;3578;51.568;6.932;2023-03-23T07:52:26;52402.44;;;-144.14;88.56
7075;BME280;3578;51.568;6.932;2023-03-23T07:54:56;52334.31;;;-144.14;88.92
7075;BME280;3578;51.568;6.932;2023-03-23T07:57:23;52370.38;;;-144.14;88.93
7075;BME280;3578;51.568;6.932;2023-03-23T07:59:50;52302.28;;;-144.14;89.41
7075;BME280;3578;51.568;6.932;2023-03-23T08:02:17;52394.44;;;-144.14;88.69
7075;BME280;3578;51.568;6.932;2023-03-23T08:04:44;52352.34;;;-144.14;88.92
7075;BME280;3578;51.568;6.932;2023-03-23T08:07:13;52354.34;;;-144.14;88.60
7075;BME280;3578;51.568;6.932;2023-03-23T08:09:42;52338.34;;;-144.14;87.99
7075;BME280;3578;51.568;6.932;2023-03-23T08:12:11;52410.47;;;-144.14;87.80
7075;BME280;3578;51.568;6.932;2023-03-23T08:14:38;52422.47;;;-144.14;87.98
7075;BME280;3578;51.568;6.932;2023-03-23T08:17:05;52410.47;;;-144.14;87.54
7075;BME280;3578;51.568;6.932;2023-03-23T08:19:34;52418.47;;;-144.14;87.38
7075;BME280;3578;51.568;6.932;2023-03-23T08:22:03;52444.53;;;-144.14;86.81
7075;BME280;3578;51.568;6.932;2023-03-23T08:24:30;52446.53;;;-144.14;86.64
7075;BME280;3578;51.568;6.932;2023-03-23T08:26:58;52430.50;;;-144.14;86.60
7075;BME280;3578;51.568;6.932;2023-03-23T08:29:26;52472.56;;;-144.14;86.36
7075;BME280;3578;51.568;6.932;2023-03-23T08:31:54;52434.50;;;-144.14;86.86
7075;BME280;3578;51.568;6.932;2023-03-23T08:34:21;52492.59;;;-144.14;86.61
7075;BME280;3578;51.568;6.932;2023-03-23T08:36:48;52464.56;;;-144.14;86.00
7075;BME280;3578;51.568;6.932;2023-03-23T08:39:17;52430.50;;;-144.14;85.93
7075;BME280;3578;51.568;6.932;2023-03-23T08:41:45;52492.59;;;-144.14;86.22
7075;BME280;3578;51.568;6.932;2023-03-23T08:44:12;52474.56;;;-144.14;85.83
7075;BME280;3578;51.568;6.932;2023-03-23T08:46:41;52440.50;;;-144.14;86.19
7075;BME280;3578;51.568;6.932;2023-03-23T08:49:08;52482.59;;;-144.14;85.92
7075;BME280;3578;51.568;6.932;2023-03-23T08:51:35;52538.69;;;-144.14;85.59
7075;BME280;3578;51.568;6.932;2023-03-23T08:54:03;52504.63;;;-144.14;86.04
7075;BME280;3578;51.568;6.932;2023-03-23T08:56:30;52520.66;;;-144.14;86.25
7075;BME280;3578;51.568;6.932;2023-03-23T08:58:57;52488.59;;;-144.14;86.40
7075;BME280;3578;51.568;6.932;2023-03-23T09:01:25;52492.59;;;-144.14;86.45
7075;BME280;3578;51.568;6.932;2023-03-23T09:03:53;52518.66;;;-144.14;85.95
7075;BME280;3578;51.568;6.932;2023-03-23T09:06:21;52490.59;;;-144.14;86.19
7075;BME280;3578;51.568;6.932;2023-03-23T09:08:48;52490.59;;;-144.14;87.09
7075;BME280;3578;51.568;6.932;2023-03-23T09:11:15;52428.50;;;-144.14;87.01
7075;BME280;3578;51.568;6.932;2023-03-23T09:13:42;52540.69;;;-144.14;86.22
7075;BME280;3578;51.568;6.932;2023-03-23T09:16:10;52508.63;;;-144.14;85.68
7075;BME280;3578;51.568;6.932;2023-03-23T09:18:37;52448.53;;;-144.14;86.43
7075;BME280;3578;51.568;6.932;2023-03-23T09:21:07;52478.59;;;-144.14;86.45
7075;BME280;3578;51.568;6.932;2023-03-23T09:23:34;52524.66;;;-144.14;85.72
7075;BME280;3578;51.568;6.932;2023-03-23T09:26:03;52534.69;;;-144.14;85.95
7075;BME280;3578;51.568;6.932;2023-03-23T09:28:30;52556.72;;;-144.14;85.41
7075;BME280;3578;51.568;6.932;2023-03-23T09:30:58;52452.53;;;-144.14;88.90
7075;BME280;3578;51.568;6.932;2023-03-23T09:33:25;52376.41;;;-144.14;91.77
7075;BME280;3578;51.568;6.932;2023-03-23T09:35:54;52316.28;;;-144.14;92.35
7075;BME280;3578;51.568;6.932;2023-03-23T09:38:23;52298.25;;;-144.14;93.65
7075;BME280;3578;51.568;6.932;2023-03-23T09:40:58;52228.13;;;-144.14;95.02
7075;BME280;3578;51.568;6.932;2023-03-23T09:43:49;52180.06;;;-144.14;96.27
7075;BME280;3578;51.568;6.932;2023-03-23T09:46:35;52152.00;;;-144.14;97.03
7075;BME280;3578;51.568;6.932;2023-03-23T09:49:11;52105.94;;;-144.14;97.55
7075;BME280;3578;51.568;6.932;2023-03-23T09:51:45;52117.94;;;-144.14;98.42
7075;BME280;3578;51.568;6.932;2023-03-23T09:54:20;52035.81;;;-144.14;99.39
7075;BME280;3578;51.568;6.932;2023-03-23T09:56:49;51943.66;;;-144.14;100.00
7075;BME280;3578;51.568;6.932;2023-03-23T09:59:22;51893.56;;;-144.14;100.00
7075;BME280;3578;51.568;6.932;2023-03-23T10:01:53;51817.44;;;-144.14;100.00
7075;BME280;3578;51.568;6.932;2023-03-23T10:04:35;51797.41;;;-144.14;100.00
7075;BME280;3578;51.568;6.932;2023-03-23T10:07:11;51811.44;;;-144.14;100.00
7075;BME280;3578;51.568;6.932;2023-03-23T10:09:42;51827.47;;;-144.14;100.00
7075;BME280;3578;51.568;6.932;2023-03-23T10:12:21;51873.53;;;-144.14;100.00
7075;BME280;3578;51.568;6.932;2023-03-23T10:15:14;51851.50;;;-144.14;99.85
7075;BME280;3578;51.568;6.932;2023-03-23T10:17:47;51883.56;;;-144.14;99.72
7075;BME280;3578;51.568;6.932;2023-03-23T10:20:36;51869.53;;;-144.14;99.89
7075;BME280;3578;51.568;6.932;2023-03-23T10:23:31;51803.44;;;-144.14;100.00
7075;BME280;3578;51.568;6.932;2023-03-23T10:26:10;51775.38;;;-144.14;100.00
7075;BME280;3578;51.568;6.932;2023-03-23T10:28:42;51761.34;;;-144.14;100.00
7075;BME280;3578;51.568;6.932;2023-03-23T10:31:13;51805.44;;;-144.14;100.00
7075;BME280;3578;51.568;6.932;2023-03-23T10:33:43;51817.44;;;-144.14;100.00
7075;BME280;3578;51.568;6.932;2023-03-23T10:36:16;51777.38;;;-144.14;100.00
7075;BME280;3578;51.568;6.932;2023-03-23T10:38:50;51831.47;;;-144.14;100.00
7075;BME280;3578;51.568;6.932;2023-03-23T10:41:22;51863.53;;;-144.14;99.09
7075;BME280;3578;51.568;6.932;2023-03-23T10:43:49;51883.56;;;-144.14;98.51
7075;BME280;3578;51.568;6.932;2023-03-23T10:46:29;52003.75;;;-144.14;96.40
7075;BME280;3578;51.568;6.932;2023-03-23T10:49:01;52035.81;;;-144.14;95.59
7075;BME280;3578;51.568;6.932;2023-03-23T10:51:33;52103.94;;;-144.14;95.34
7075;BME280;3578;51.568;6.932;2023-03-23T10:54:03;52156.00;;;-144.14;95.12
7075;BME280;3578;51.568;6.932;2023-03-23T10:56:38;52164.03;;;-144.14;94.42
7075;BME280;3578;51.568;6.932;2023-03-23T10:59:14;52200.09;;;-144.14;94.17
7075;BME280;3578;51.568;6.932;2023-03-23T11:01:44;52182.06;;;-144.14;94.33
7075;BME280;3578;51.568;6.932;2023-03-23T11:04:16;52140.00;;;-144.14;94.95
7075;BME280;3578;51.568;6.932;2023-03-23T11:06:46;52113.94;;;-144.14;95.50
7075;BME280;3578;51.568;6.932;2023-03-23T11:09:17;52192.06;;;-144.14;95.21
7075;BME280;3578;51.568;6.932;2023-03-23T11:11:51;52073.88;;;-144.14;95.84
7075;BME280;3578;51.568;6.932;2023-03-23T11:14:26;52113.94;;;-144.14;95.85
7075;BME280;3578;51.568;6.932;2023-03-23T11:16:55;52099.91;;;-144.14;96.01
7075;BME280;3578;51.568;6.932;2023-03-23T11:19:26;52117.94;;;-144.14;96.55
7075;BME280;3578;51.568;6.932;2023-03-23T11:22:06;52083.88;;;-144.14;96.36
7075;BME280;3578;51.568;6.932;2023-03-23T11:24:36;52087.91;;;-144.14;96.07
7075;BME280;3578;51.568;6.932;2023-03-23T11:27:09;52119.94;;;-144.14;96.44
7075;BME280;3578;51.568;6.932;2023-03-23T11:29:47;52097.91;;;-144.14;96.78
7075;BME280;3578;51.568;6.932;2023-03-23T11:32:16;52109.94;;;-144.14;95.88
7075;BME280;3578;51.568;6.932;2023-03-23T11:34:45;52097.91;;;-144.14;96.62
7075;BME280;3578;51.568;6.932;2023-03-23T11:37:18;52081.88;;;-144.14;96.72
7075;BME280;3578;51.568;6.932;2023-03-23T11:39:49;52079.88;;;-144.14;96.50
7075;BME280;3578;51.568;6.932;2023-03-23T11:42:22;52075.88;;;-144.14;97.10
7075;BME280;3578;51.568;6.932;2023-03-23T11:44:54;52142.00;;;-144.14;96.66
7075;BME280;3578;51.568;6.932;2023-03-23T11:47:29;52125.97;;;-144.14;96.17
7075;BME280;3578;51.568;6.932;2023-03-23T11:50:04;52131.97;;;-144.14;95.79
7075;BME280;3578;51.568;6.932;2023-03-23T11:52:43;52172.03;;;-144.14;95.45
7075;BME280;3578;51.568;6.932;2023-03-23T11:55:17;52168.03;;;-144.14;96.15
7075;BME280;3578;51.568;6.932;2023-03-23T11:57:47;52152.00;;;-144.14;96.12
7075;BME280;3578;51.568;6.932;2023-03-23T12:00:18;52125.97;;;-144.14;96.20
7075;BME280;3578;51.568;6.932;2023-03-23T12:02:54;52184.06;;;-144.14;96.01
7075;BME280;3578;51.568;6.932;2023-03-23T12:05:37;52200.09;;;-144.14;95.24
7075;BME280;3578;51.568;6.932;2023-03-23T12:08:23;52216.13;;;-144.14;94.81
7075;BME280;3578;51.568;6.932;2023-03-23T12:11:01;52218.13;;;-144.14;94.82
7075;BME280;3578;51.568;6.932;2023-03-23T12:13:48;52236.16;;;-144.14;94.51
7075;BME280;3578;51.568;6.932;2023-03-23T12:16:31;52238.16;;;-144.14;94.25
7075;BME280;3578;51.568;6.932;2023-03-23T12:19:09;52244.16;;;-144.14;94.67
7075;BME280;3578;51.568;6.932;2023-03-23T12:21:49;52204.09;;;-144.14;94.49
7075;BME280;3578;51.568;6.932;2023-03-23T12:24:32;52208.09;;;-144.14;95.58
7075;BME280;3578;51.568;6.932;2023-03-23T12:27:07;52123.97;;;-144.14;96.28
7075;BME280;3578;51.568;6.932;2023-03-23T12:30:20;52168.03;;;-144.14;96.47
7075;BME280;3578;51.568;6.932;2023-03-23T12:33:13;52142.00;;;-144.14;96.70
7075;BME280;3578;51.568;6.932;2023-03-23T12:35:54;52152.00;;;-144.14;96.36
7075;BME280;3578;51.568;6.932;2023-03-23T12:38:44;52200.09;;;-144.14;95.72
7075;BME280;3578;51.568;6.932;2023-03-23T12:41:20;52236.16;;;-144.14;95.20
7075;BME280;3578;51.568;6.932;2023-03-23T12:43:52;52250.19;;;-144.14;94.51
7075;BME280;3578;51.568;6.932;2023-03-23T12:47:01;52242.16;;;-144.14;94.82
7075;BME280;3578;51.568;6.932;2023-03-23T12:49:34;52298.25;;;-144.14;95.36
7075;BME280;3578;51.568;6.932;2023-03-23T12:52:10;52306.28;;;-144.14;94.30
7075;BME280;3578;51.568;6.932;2023-03-23T12:54:42;52288.25;;;-144.14;94.65
7075;BME280;3578;51.568;6.932;2023-03-23T12:57:21;52304.28;;;-144.14;93.77
7075;BME280;3578;51.568;6.932;2023-03-23T12:59:56;52304.28;;;-144.14;94.20
7075;BME280;3578;51.568;6.932;2023-03-23T13:02:29;52308.28;;;-144.14;93.87
7075;BME280;3578;51.568;6.932;2023-03-23T13:05:02;52298.25;;;-144.14;93.78
7075;BME280;3578;51.568;6.932;2023-03-23T13:07:47;52260.19;;;-144.14;94.35
7075;BME280;3578;51.568;6.932;2023-03-23T13:10:21;52294.25;;;-144.14;95.19
7075;BME280;3578;51.568;6.932;2023-03-23T13:12:51;52288.25;;;-144.14;94.65
7075;BME280;3578;51.568;6.932;2023-03-23T13:15:31;52324.31;;;-144.14;94.45
7075;BME280;3578;51.568;6.932;2023-03-23T13:18:11;52296.25;;;-144.14;94.57
7075;BME280;3578;51.568;6.932;2023-03-23T13:20:57;52300.25;;;-144.14;94.35